Decoded Metar for KFWN (SUSSEX in NJ, USA) (IATA:FWN) | Meteo·Mobile Aviation Weather
aviador You're here:

KFWN Decoded Metar

SUSSEX in NJ, USA
Report Time2018-09-21 16:53:00
UTC Time2018-09-21 17:27:54
Flight Rules mvfr MVFR
Wind200° at 07 kt
W.Decomp.*RWY 21: 7.0 kt HW 0.4 kt RCW
W.Rank200° ranks 6
Current wind is above 200° avg. (5.2)
Visibility9999 m
Phenomena:N/A
Clouds:Overcast 025 Hf
Expected CloudBase > 1,600 ft AGL from Temp-Dew spread
Ceiling2,500 ft
Temp21°C (ISA +7)
Dew Point17°C (78% RH)
AAT20.9°C
QNH1021 hPa
Density Alt1,227 ft
Elevation436 ft
Report Wrong Elevation
Raw Report
KFWN 211653Z AUTO 20007KT 180V240 10SM OVC025 21/17 A3016 RMK AO2
RAB01E06 SLP211 P0000 T02060172=

Extra information for KFWN:More info

Metar Taf Metar & Taf Last 4 Metars F.Rules Stats Wind Profile Meteogram Temp Stats Airport Information Weather charts Add Link Nearby VenuesMetar ALERT Operation Metar Decoded Social comments

AIRNAV info for KFWN